Time;durP1;ratioP1;P1;durP2;ratioP2;P2;SDS_P1;SDS_P2;PMS_P1;PMS_P2;Temp;Humidity;BMP_temperature;BMP_pressure;BME280_temperature;BME280_humidity;BME280_pressure;Samples;Min_cycle;Max_cycle;Signal;HPM_P1;HPM_P2
2023/09/23 00:00:07;;;;;;;15.70;4.95;;;;;;;19.73;100.00;99584.66;5589074;31;34082;-74
2023/09/23 00:03:13;;;;;;;18.55;5.03;;;;;;;19.99;100.00;99585.84;5588139;31;33675;-73
2023/09/23 00:06:19;;;;;;;15.00;4.70;;;;;;;20.05;100.00;99596.41;5588649;31;33765;-74
2023/09/23 00:09:23;;;;;;;22.27;5.22;;;;;;;19.93;100.00;99587.63;5588761;31;32187;-74
2023/09/23 00:12:26;;;;;;;15.82;4.70;;;;;;;19.82;100.00;99583.97;5588406;31;33886;-74
2023/09/23 00:15:29;;;;;;;18.58;5.37;;;;;;;19.77;100.00;99588.47;5587652;31;33800;-74
2023/09/23 00:18:32;;;;;;;19.35;5.55;;;;;;;19.70;100.00;99596.72;5588351;31;33738;-74
2023/09/23 00:21:35;;;;;;;18.77;5.53;;;;;;;19.66;100.00;99597.44;5587580;31;34442;-73
2023/09/23 00:24:38;;;;;;;19.37;5.62;;;;;;;19.64;100.00;99586.94;5588227;31;33899;-74
2023/09/23 00:27:41;;;;;;;16.85;5.78;;;;;;;19.57;100.00;99588.97;5588212;31;33821;-74
2023/09/23 00:30:45;;;;;;;14.70;5.65;;;;;;;19.52;100.00;99586.19;5591116;31;35141;-73
2023/09/23 00:33:49;;;;;;;18.02;6.25;;;;;;;19.48;100.00;99593.12;5590795;31;33844;-74
2023/09/23 00:36:53;;;;;;;16.83;5.90;;;;;;;19.46;100.00;99593.38;5590915;31;33942;-73
2023/09/23 00:39:56;;;;;;;20.60;6.12;;;;;;;19.41;100.00;99601.31;5590800;31;33495;-74
2023/09/23 00:43:05;;;;;;;15.00;5.43;;;;;;;19.36;100.00;99592.38;5577039;31;33792;-74
2023/09/23 00:46:10;;;;;;;17.87;6.25;;;;;;;19.33;100.00;99595.53;5590638;31;34748;-74
2023/09/23 00:49:13;;;;;;;19.87;5.90;;;;;;;19.32;100.00;99596.59;5590713;31;34467;-73
2023/09/23 00:52:17;;;;;;;16.62;5.68;;;;;;;19.33;100.00;99598.22;5589920;31;33975;-74
2023/09/23 00:55:20;;;;;;;22.58;5.95;;;;;;;19.37;100.00;99602.88;5590833;31;33929;-74
2023/09/23 00:58:25;;;;;;;16.42;5.85;;;;;;;19.41;100.00;99585.19;5590605;31;33842;-74
2023/09/23 01:01:28;;;;;;;17.98;5.47;;;;;;;19.45;100.00;99588.25;5589914;31;34316;-74
2023/09/23 01:04:31;;;;;;;16.27;5.50;;;;;;;19.47;100.00;99588.81;5590507;31;33766;-74
2023/09/23 01:07:35;;;;;;;20.67;5.78;;;;;;;19.47;100.00;99591.50;5590480;31;33755;-74
2023/09/23 01:10:39;;;;;;;15.07;5.82;;;;;;;19.48;100.00;99590.44;5590349;31;33789;-74
2023/09/23 01:13:44;;;;;;;18.08;6.05;;;;;;;19.46;100.00;99589.87;5590526;31;33812;-74
2023/09/23 01:16:49;;;;;;;18.60;5.87;;;;;;;19.47;100.00;99592.31;5589732;31;33976;-74
2023/09/23 01:19:53;;;;;;;16.73;5.03;;;;;;;19.50;100.00;99602.59;5590586;31;33768;-74
2023/09/23 01:22:56;;;;;;;22.30;5.80;;;;;;;19.51;100.00;99601.53;5590431;31;33898;-74
2023/09/23 01:25:59;;;;;;;16.08;5.65;;;;;;;19.52;100.00;99602.34;5590092;31;35180;-74
2023/09/23 01:29:04;;;;;;;18.75;5.35;;;;;;;19.57;100.00;99606.97;5590335;31;33730;-74
2023/09/23 01:32:26;;;;;;;19.65;5.45;;;;;;;19.61;100.00;99613.50;5589520;31;33764;-74
2023/09/23 01:35:31;;;;;;;24.05;5.72;;;;;;;19.83;100.00;99619.78;5589516;31;33945;-74
2023/09/23 01:38:35;;;;;;;20.37;5.47;;;;;;;20.01;100.00;99622.19;5590178;31;32567;-74
2023/09/23 01:41:37;;;;;;;21.98;6.10;;;;;;;20.04;100.00;99623.59;5590378;31;34438;-74
2023/09/23 01:44:41;;;;;;;18.40;5.47;;;;;;;19.95;100.00;99624.00;5590417;31;32338;-74
2023/09/23 01:47:44;;;;;;;18.87;5.40;;;;;;;19.94;100.00;99621.56;5590258;31;33862;-74
2023/09/23 01:50:47;;;;;;;15.15;4.90;;;;;;;19.93;100.00;99630.72;5590095;31;33895;-74
2023/09/23 01:53:50;;;;;;;18.50;5.15;;;;;;;19.95;100.00;99620.50;5590159;31;33770;-74
2023/09/23 01:56:54;;;;;;;22.62;5.43;;;;;;;19.96;100.00;99632.91;5590475;31;33731;-74
2023/09/23 01:59:57;;;;;;;13.93;4.75;;;;;;;19.94;100.00;99635.81;5590452;31;33729;-74
2023/09/23 02:03:00;;;;;;;20.02;5.47;;;;;;;19.98;100.00;99644.25;5590425;31;33800;-74
2023/09/23 02:06:04;;;;;;;19.40;4.80;;;;;;;19.99;100.00;99656.66;5589281;31;34613;-74
2023/09/23 02:09:09;;;;;;;20.25;5.03;;;;;;;19.99;100.00;99653.16;5590403;31;33810;-74
2023/09/23 02:12:14;;;;;;;17.60;4.95;;;;;;;19.95;100.00;99645.53;5589960;31;33787;-74
2023/09/23 02:15:17;;;;;;;20.45;4.82;;;;;;;19.93;100.00;99639.59;5590015;31;33819;-74
2023/09/23 02:18:21;;;;;;;17.05;4.53;;;;;;;19.95;100.00;99656.31;5589899;31;34517;-74
2023/09/23 02:21:28;;;;;;;19.35;5.18;;;;;;;19.93;100.00;99641.47;5589884;31;34410;-74
2023/09/23 02:24:32;;;;;;;19.02;4.72;;;;;;;19.95;100.00;99655.50;5589908;31;33771;-74
2023/09/23 02:27:36;;;;;;;17.52;4.85;;;;;;;19.96;100.00;99654.44;5589793;31;33881;-74
2023/09/23 02:30:42;;;;;;;20.85;4.90;;;;;;;20.01;100.00;99664.47;5589829;31;33955;-73
2023/09/23 02:33:46;;;;;;;16.87;4.40;;;;;;;19.99;100.00;99662.03;5589271;31;34494;-73
2023/09/23 02:36:51;;;;;;;18.35;4.60;;;;;;;19.91;100.00;99674.03;5589749;31;33958;-73
2023/09/23 02:39:54;;;;;;;18.25;4.95;;;;;;;19.82;100.00;99677.38;5589705;31;33901;-73
2023/09/23 02:42:59;;;;;;;20.10;5.18;;;;;;;19.86;100.00;99673.94;5590056;31;33692;-73
2023/09/23 02:46:03;;;;;;;13.05;4.70;;;;;;;20.06;100.00;99667.22;5589484;31;33795;-74
2023/09/23 02:49:08;;;;;;;18.75;5.35;;;;;;;19.98;100.00;99683.81;5589718;31;33864;-73
2023/09/23 02:52:11;;;;;;;16.20;5.05;;;;;;;19.91;100.00;99687.47;5588574;31;33723;-73
2023/09/23 02:55:19;;;;;;;17.40;5.12;;;;;;;19.88;100.00;99693.38;5589127;31;34432;-73
2023/09/23 02:58:23;;;;;;;21.25;4.65;;;;;;;19.88;100.00;99693.38;5589997;31;34740;-74
2023/09/23 03:01:27;;;;;;;19.33;5.25;;;;;;;20.00;100.00;99700.53;5589161;31;33932;-73
2023/09/23 03:04:32;;;;;;;19.62;4.97;;;;;;;20.19;100.00;99702.72;5589544;31;33886;-74
2023/09/23 03:07:35;;;;;;;22.92;5.10;;;;;;;20.16;100.00;99699.69;5588744;31;34306;-74
2023/09/23 03:10:41;;;;;;;19.55;5.18;;;;;;;19.99;100.00;99693.53;5589637;31;34534;-74
2023/09/23 03:13:45;;;;;;;22.45;5.15;;;;;;;19.96;100.00;99698.34;5589293;31;33826;-74
2023/09/23 03:16:54;;;;;;;19.45;5.70;;;;;;;19.86;100.00;99703.53;5589501;31;33722;-74
2023/09/23 03:19:59;;;;;;;22.40;5.62;;;;;;;19.74;100.00;99700.12;5588568;31;33957;-74
2023/09/23 03:23:04;;;;;;;19.05;5.90;;;;;;;19.70;100.00;99698.19;5589698;31;33881;-74
2023/09/23 03:26:08;;;;;;;20.37;6.18;;;;;;;19.47;100.00;99699.09;5588843;31;33839;-74
2023/09/23 03:29:15;;;;;;;23.30;6.18;;;;;;;19.22;100.00;99698.63;5589529;31;33785;-74
2023/09/23 03:32:18;;;;;;;22.17;6.45;;;;;;;18.95;100.00;99693.00;5589319;31;33703;-74
2023/09/23 03:35:24;;;;;;;22.90;6.47;;;;;;;18.74;100.00;99681.00;5589099;31;34540;-74
2023/09/23 03:38:32;;;;;;;18.37;6.55;;;;;;;18.60;100.00;99675.09;5589120;31;32091;-74
2023/09/23 03:41:37;;;;;;;23.02;7.18;;;;;;;18.50;100.00;99668.63;5589104;31;33241;-74
2023/09/23 03:44:41;;;;;;;24.52;7.07;;;;;;;18.43;100.00;99666.09;5588837;31;33706;-74
2023/09/23 03:47:46;;;;;;;25.52;6.78;;;;;;;18.37;100.00;99674.28;5588110;31;34453;-75
2023/09/23 03:50:53;;;;;;;28.73;7.20;;;;;;;18.37;100.00;99674.28;5588233;31;33708;-74
2023/09/23 03:53:56;;;;;;;24.20;7.07;;;;;;;18.46;100.00;99675.53;5588917;31;33560;-74
2023/09/23 03:56:59;;;;;;;27.77;7.15;;;;;;;18.50;100.00;99676.69;5589151;31;34824;-73
2023/09/23 04:00:16;;;;;;;22.70;6.72;;;;;;;18.38;100.00;99687.47;5588669;31;33768;-74
2023/09/23 04:03:19;;;;;;;20.88;6.85;;;;;;;18.36;100.00;99694.94;5589964;31;34466;-74
2023/09/23 04:06:22;;;;;;;22.58;6.75;;;;;;;18.40;100.00;99700.66;5591087;31;34586;-74
2023/09/23 04:09:25;;;;;;;26.05;7.22;;;;;;;18.46;100.00;99705.91;5591027;31;34913;-74
2023/09/23 04:12:28;;;;;;;27.13;7.00;;;;;;;18.51;100.00;99703.34;5590990;31;34514;-74
2023/09/23 04:15:32;;;;;;;29.55;6.90;;;;;;;18.57;100.00;99706.97;5590332;31;33758;-73
2023/09/23 04:18:35;;;;;;;22.77;6.93;;;;;;;18.74;100.00;99724.00;5590259;31;33725;-73
2023/09/23 04:21:37;;;;;;;19.35;6.62;;;;;;;18.85;100.00;99733.91;5591005;31;33802;-73
2023/09/23 04:24:40;;;;;;;22.42;6.50;;;;;;;19.06;100.00;99741.34;5590918;31;33764;-74
2023/09/23 04:27:43;;;;;;;18.17;5.90;;;;;;;19.41;100.00;99749.28;5590106;31;34393;-74
2023/09/23 04:30:46;;;;;;;25.48;6.65;;;;;;;19.62;100.00;99742.44;5590144;31;33729;-75
2023/09/23 04:33:51;;;;;;;27.17;7.05;;;;;;;19.75;100.00;99728.66;5591106;31;33740;-74
2023/09/23 04:36:54;;;;;;;23.58;7.03;;;;;;;19.85;100.00;99730.69;5590982;31;33963;-74
2023/09/23 04:39:58;;;;;;;25.55;6.60;;;;;;;19.87;100.00;99728.59;5590820;31;33773;-74
2023/09/23 04:43:04;;;;;;;20.75;6.35;;;;;;;19.86;100.00;99724.25;5590876;31;33743;-73
2023/09/23 04:46:08;;;;;;;20.67;6.68;;;;;;;19.87;100.00;99720.53;5590521;31;33792;-74
2023/09/23 04:49:11;;;;;;;20.15;6.85;;;;;;;19.80;100.00;99714.50;5590841;31;33789;-74
2023/09/23 04:52:16;;;;;;;28.90;6.15;;;;;;;19.71;100.00;99726.69;5590472;31;33736;-77
2023/09/23 04:55:20;;;;;;;25.00;6.87;;;;;;;19.69;100.00;99726.13;5590197;31;34879;-75
2023/09/23 04:58:23;;;;;;;26.08;6.95;;;;;;;19.60;100.00;99738.34;5590673;31;34475;-75
2023/09/23 05:01:28;;;;;;;27.92;7.55;;;;;;;19.59;100.00;99734.03;5590643;31;33722;-75
2023/09/23 05:04:31;;;;;;;19.33;6.40;;;;;;;19.52;100.00;99731.47;5590476;31;33812;-75
2023/09/23 05:07:34;;;;;;;22.45;6.68;;;;;;;19.57;100.00;99733.44;5590650;31;33812;-75
2023/09/23 05:10:39;;;;;;;24.95;6.40;;;;;;;19.61;100.00;99740.78;5590888;31;32298;-74
2023/09/23 05:13:42;;;;;;;18.52;7.03;;;;;;;19.61;100.00;99734.59;5589926;31;34550;-75
2023/09/23 05:16:45;;;;;;;22.33;6.72;;;;;;;19.61;100.00;99769.56;5590381;31;33842;-74
2023/09/23 05:19:48;;;;;;;19.15;6.50;;;;;;;19.69;100.00;99779.97;5590086;31;34409;-75
2023/09/23 05:22:52;;;;;;;28.40;7.07;;;;;;;19.67;100.00;99785.56;5590521;31;34814;-76
2023/09/23 05:25:57;;;;;;;18.67;6.65;;;;;;;19.71;100.00;99778.66;5590297;31;35428;-75
2023/09/23 05:29:02;;;;;;;25.17;6.78;;;;;;;19.72;100.00;99780.28;5590272;31;33727;-76
2023/09/23 05:32:05;;;;;;;26.30;6.70;;;;;;;19.77;100.00;99779.56;5590296;31;35240;-74
2023/09/23 05:35:09;;;;;;;25.27;6.22;;;;;;;19.77;100.00;99788.47;5589931;31;33869;-75
2023/09/23 05:38:13;;;;;;;28.60;6.07;;;;;;;19.81;100.00;99797.69;5590261;31;33880;-76
2023/09/23 05:41:16;;;;;;;21.08;6.30;;;;;;;19.90;100.00;99806.16;5589420;31;33791;-76
2023/09/23 05:44:19;;;;;;;22.52;5.75;;;;;;;19.95;100.00;99817.84;5589953;31;33837;-75
2023/09/23 05:47:23;;;;;;;29.17;6.90;;;;;;;19.98;100.00;99823.81;5590273;31;33727;-75
2023/09/23 05:50:26;;;;;;;21.35;5.80;;;;;;;19.97;100.00;99844.53;5590189;31;33809;-74
2023/09/23 05:53:29;;;;;;;22.13;5.87;;;;;;;19.99;100.00;99849.69;5590005;31;33833;-76
2023/09/23 05:56:32;;;;;;;17.67;5.47;;;;;;;19.99;100.00;99855.91;5590050;31;33681;-75
2023/09/23 05:59:35;;;;;;;23.20;5.60;;;;;;;20.01;100.00;99861.84;5590142;31;33986;-75
2023/09/23 06:02:39;;;;;;;24.08;6.20;;;;;;;19.99;100.00;99873.94;5590374;31;34931;-75
2023/09/23 06:05:42;;;;;;;24.10;6.12;;;;;;;19.94;100.00;99886.22;5589772;31;34094;-75
2023/09/23 06:08:48;;;;;;;24.45;6.32;;;;;;;19.87;100.00;99885.56;5589343;31;33707;-75
2023/09/23 06:11:51;;;;;;;20.25;6.30;;;;;;;19.58;100.00;99886.59;5590046;31;33847;-75
2023/09/23 06:14:54;;;;;;;21.77;6.28;;;;;;;19.19;100.00;99888.16;5589955;31;33952;-75
2023/09/23 06:18:01;;;;;;;19.95;6.65;;;;;;;18.93;100.00;99884.06;5589160;31;34456;-74
2023/09/23 06:21:06;;;;;;;25.20;6.45;;;;;;;18.79;100.00;99877.28;5589875;31;33761;-73
2023/09/23 06:24:10;;;;;;;24.63;6.82;;;;;;;18.60;100.00;99878.44;5589576;31;33716;-72
2023/09/23 06:27:13;;;;;;;20.10;6.20;;;;;;;18.55;100.00;99876.44;5588341;31;34385;-75
2023/09/23 06:30:17;;;;;;;22.42;7.20;;;;;;;18.49;100.00;99882.72;5589871;31;33848;-73
2023/09/23 06:33:21;;;;;;;22.50;6.72;;;;;;;18.38;100.00;99888.91;5590092;31;33863;-73
2023/09/23 06:36:25;;;;;;;22.30;7.30;;;;;;;18.40;100.00;99888.66;5588994;31;34465;-73
2023/09/23 06:39:28;;;;;;;26.92;8.15;;;;;;;18.41;100.00;99901.84;5589799;31;33848;-76
2023/09/23 06:42:31;;;;;;;22.20;7.45;;;;;;;18.44;100.00;99928.28;5589919;31;33300;-75
2023/09/23 06:45:35;;;;;;;21.40;7.25;;;;;;;18.49;100.00;99947.19;5589495;31;33735;-76
2023/09/23 06:48:38;;;;;;;26.73;7.45;;;;;;;18.46;100.00;99960.25;5589053;31;33810;-76
2023/09/23 06:51:41;;;;;;;25.25;8.02;;;;;;;18.47;100.00;99978.84;5589012;31;33719;-77
2023/09/23 06:54:44;;;;;;;25.33;7.37;;;;;;;18.43;100.00;99990.28;5589662;31;34457;-78
2023/09/23 06:57:47;;;;;;;26.55;8.40;;;;;;;18.38;100.00;100015.12;5589611;31;33862;-76
2023/09/23 07:00:51;;;;;;;25.33;8.85;;;;;;;18.51;100.00;100038.28;5589583;31;34639;-75
2023/09/23 07:03:54;;;;;;;28.98;9.13;;;;;;;18.52;100.00;100032.69;5589591;31;33649;-75
2023/09/23 07:06:58;;;;;;;21.80;7.65;;;;;;;18.51;100.00;100038.28;5589528;31;33134;-76
2023/09/23 07:10:01;;;;;;;25.42;8.70;;;;;;;18.51;100.00;100030.22;5589042;31;34430;-74
2023/09/23 07:13:05;;;;;;;28.08;9.00;;;;;;;18.46;100.00;100025.53;5588855;31;33146;-72
2023/09/23 07:16:14;;;;;;;23.50;8.65;;;;;;;18.41;100.00;100040.69;5589205;31;34527;-75
2023/09/23 07:19:17;;;;;;;34.63;8.90;;;;;;;18.36;100.00;100049.44;5589399;31;33772;-78
2023/09/23 07:22:19;;;;;;;26.33;9.27;;;;;;;18.33;100.00;100067.87;5589663;31;33870;-77
2023/09/23 07:25:22;;;;;;;25.85;9.23;;;;;;;18.29;100.00;100072.06;5589465;31;33813;-76
2023/09/23 07:28:25;;;;;;;23.65;10.07;;;;;;;18.27;100.00;100066.91;5589143;31;33741;-77
2023/09/23 07:31:28;;;;;;;29.50;9.98;;;;;;;18.27;100.00;100076.81;5589158;31;33801;-76
2023/09/23 07:34:31;;;;;;;27.92;10.10;;;;;;;18.37;100.00;100066.38;5589133;31;34576;-76
2023/09/23 07:37:34;;;;;;;25.95;9.45;;;;;;;18.43;100.00;100095.03;5588585;31;33807;-76
2023/09/23 07:40:40;;;;;;;25.55;10.32;;;;;;;18.39;100.00;100088.47;5589179;31;34650;-74
2023/09/23 07:43:43;;;;;;;25.25;9.18;;;;;;;18.43;100.00;100106.59;5589149;31;34327;-76
2023/09/23 07:46:46;;;;;;;18.35;8.98;;;;;;;18.32;100.00;100095.78;5549070;31;516885;-75
2023/09/23 07:49:50;;;;;;;21.48;8.82;;;;;;;18.19;100.00;100094.06;5588849;31;33933;-77
2023/09/23 07:52:54;;;;;;;28.23;9.15;;;;;;;18.18;100.00;100095.94;5574766;31;34430;-75
2023/09/23 07:55:57;;;;;;;27.05;10.23;;;;;;;18.14;100.00;100094.75;5588941;31;33790;-75
2023/09/23 07:59:00;;;;;;;19.35;8.75;;;;;;;18.08;100.00;100082.22;5589083;31;33884;-75
2023/09/23 08:02:03;;;;;;;26.17;9.88;;;;;;;17.96;100.00;100080.50;5588770;31;34436;-75
2023/09/23 08:05:07;;;;;;;24.00;9.95;;;;;;;17.95;100.00;100079.69;5574943;31;34017;-77
2023/09/23 08:08:10;;;;;;;22.83;9.88;;;;;;;18.06;100.00;100065.50;5588614;31;34436;-74
2023/09/23 08:11:13;;;;;;;22.80;9.73;;;;;;;18.17;100.00;100045.97;5588524;31;34876;-75
2023/09/23 08:14:16;;;;;;;18.55;8.85;;;;;;;18.31;100.00;100027.81;5588466;31;33858;-76
2023/09/23 08:17:19;;;;;;;24.17;9.30;;;;;;;18.41;100.00;99998.53;5588495;31;33850;-76
2023/09/23 08:20:23;;;;;;;20.65;8.57;;;;;;;18.58;100.00;99986.16;5588395;31;33814;-76
2023/09/23 08:23:28;;;;;;;16.95;7.82;;;;;;;18.75;100.00;99961.28;5588354;31;34789;-76
2023/09/23 08:26:31;;;;;;;18.55;7.72;;;;;;;18.82;100.00;99951.28;5588236;31;33746;-75
2023/09/23 08:29:34;;;;;;;16.45;7.15;;;;;;;18.89;100.00;99946.59;5588292;31;34427;-75
2023/09/23 08:32:38;;;;;;;16.55;7.50;;;;;;;18.96;100.00;99952.69;5588618;31;34353;-75
2023/09/23 08:35:42;;;;;;;19.50;7.57;;;;;;;18.85;100.00;99957.00;5574271;31;34752;-75
2023/09/23 08:38:45;;;;;;;17.27;7.25;;;;;;;18.89;100.00;99958.16;5587892;31;33834;-75
2023/09/23 08:41:53;;;;;;;20.80;7.35;;;;;;;18.99;100.00;99963.78;5587929;31;34494;-75
2023/09/23 08:44:57;;;;;;;18.95;7.72;;;;;;;18.96;100.00;99972.31;5587635;31;34606;-76
2023/09/23 08:48:03;;;;;;;16.77;7.20;;;;;;;18.99;100.00;99965.66;5574273;31;33778;-75
2023/09/23 08:51:08;;;;;;;17.10;7.37;;;;;;;19.20;100.00;99970.47;5590837;31;34629;-75
2023/09/23 08:54:12;;;;;;;15.63;6.95;;;;;;;19.36;100.00;99958.19;5590431;31;33845;-74
2023/09/23 08:57:16;;;;;;;17.75;7.12;;;;;;;19.57;100.00;99962.97;5590442;31;33762;-75
2023/09/23 09:00:20;;;;;;;18.08;7.55;;;;;;;19.66;100.00;99958.03;5590511;31;33879;-74
2023/09/23 09:03:24;;;;;;;16.73;5.85;;;;;;;19.61;100.00;99955.25;5590752;31;32690;-75
2023/09/23 09:06:29;;;;;;;18.25;6.20;;;;;;;19.44;100.00;99960.53;5590462;31;33752;-73
2023/09/23 09:09:32;;;;;;;17.52;6.15;;;;;;;19.80;100.00;99967.50;5590823;31;34437;-74
2023/09/23 09:12:36;;;;;;;14.82;5.75;;;;;;;19.98;100.00;99979.97;5576884;31;33786;-73
2023/09/23 09:15:39;;;;;;;17.52;6.35;;;;;;;20.15;100.00;99986.22;5590366;31;33850;-74
2023/09/23 09:18:42;;;;;;;15.07;5.72;;;;;;;20.46;100.00;100022.72;5590433;31;34375;-74
2023/09/23 09:21:45;;;;;;;12.68;4.97;;;;;;;20.48;100.00;100020.59;5590463;31;33706;-74
2023/09/23 09:24:48;;;;;;;18.87;5.90;;;;;;;20.35;100.00;100024.38;5576618;31;33823;-74
2023/09/23 09:27:52;;;;;;;12.35;4.90;;;;;;;20.21;100.00;100042.66;5576687;31;33835;-73
2023/09/23 09:30:56;;;;;;;15.20;5.32;;;;;;;20.20;100.00;100041.03;5589859;31;33759;-75
2023/09/23 09:34:05;;;;;;;13.10;4.78;;;;;;;20.48;100.00;100042.16;5590025;31;33718;-74
2023/09/23 09:37:10;;;;;;;15.10;5.07;;;;;;;20.29;100.00;100054.94;5590198;31;33871;-73
2023/09/23 09:40:19;;;;;;;12.73;5.78;;;;;;;20.12;100.00;100052.19;5590217;31;33835;-73
2023/09/23 09:43:23;;;;;;;14.25;5.90;;;;;;;20.51;100.00;100058.66;5590107;31;33812;-72
2023/09/23 09:46:30;;;;;;;14.87;5.72;;;;;;;20.24;100.00;100057.53;5589896;31;33694;-74
2023/09/23 09:49:37;;;;;;;11.40;4.85;;;;;;;20.29;100.00;100063.00;5563831;31;33754;-73
2023/09/23 09:52:44;;;;;;;11.48;4.62;;;;;;;20.31;100.00;100055.56;5563956;31;35180;-72
2023/09/23 09:55:47;;;;;;;17.12;5.20;;;;;;;20.51;100.00;100047.88;5576421;31;33809;-74
2023/09/23 09:58:56;;;;;;;8.27;4.12;;;;;;;20.47;100.00;100049.41;5576114;31;33267;-72
2023/09/23 10:02:00;;;;;;;12.80;5.78;;;;;;;20.24;100.00;100036.78;5589796;31;33892;-73
2023/09/23 10:05:05;;;;;;;14.10;6.18;;;;;;;20.05;100.00;100031.81;5563428;31;33743;-73
2023/09/23 10:08:18;;;;;;;13.25;6.62;;;;;;;20.23;100.00;100042.44;5589820;31;33839;-73
2023/09/23 10:11:34;;;;;;;10.93;7.07;;;;;;;20.31;100.00;100036.69;5589439;31;33732;-72
2023/09/23 10:14:38;;;;;;;12.25;7.28;;;;;;;20.84;100.00;100039.03;5576070;31;34477;-72
2023/09/23 10:17:43;;;;;;;12.73;6.97;;;;;;;21.39;100.00;100033.78;5576612;31;33684;-72
2023/09/23 10:20:56;;;;;;;12.23;6.72;;;;;;;21.89;100.00;100038.25;5589929;31;33856;-72
2023/09/23 10:24:02;;;;;;;12.02;6.82;;;;;;;22.08;100.00;100034.22;5589781;31;35219;-72
2023/09/23 10:27:06;;;;;;;13.68;6.72;;;;;;;22.21;100.00;100041.97;5589768;31;33890;-72
2023/09/23 10:30:09;;;;;;;9.45;6.40;;;;;;;22.22;100.00;100045.50;5589778;31;34796;-72
2023/09/23 10:33:12;;;;;;;11.50;6.05;;;;;;;21.84;100.00;100055.22;5576037;31;33766;-71
2023/09/23 10:36:20;;;;;;;11.43;5.60;;;;;;;22.24;100.00;100052.25;5589602;31;33713;-70
2023/09/23 10:39:24;;;;;;;10.68;5.30;;;;;;;22.67;100.00;100043.28;5589723;31;33815;-71
2023/09/23 10:42:31;;;;;;;13.02;5.00;;;;;;;23.18;100.00;100046.50;5589511;31;33760;-71
2023/09/23 10:45:34;;;;;;;9.38;4.80;;;;;;;23.39;100.00;100054.50;5589800;31;32618;-71
2023/09/23 10:48:37;;;;;;;8.48;3.87;;;;;;;23.93;100.00;100048.09;5589607;31;33883;-70
2023/09/23 10:51:41;;;;;;;6.75;2.50;;;;;;;24.20;100.00;100046.91;5589956;31;34503;-72
2023/09/23 10:54:43;;;;;;;6.05;2.42;;;;;;;26.52;100.00;100037.03;5589729;31;34531;-72
2023/09/23 10:57:48;;;;;;;5.25;2.00;;;;;;;28.38;76.19;100049.22;5589576;31;33944;-71
2023/09/23 11:00:52;;;;;;;6.60;2.22;;;;;;;27.11;88.54;100042.34;5589565;31;33879;-72
2023/09/23 11:03:55;;;;;;;4.78;2.20;;;;;;;25.84;94.44;100047.63;5588955;31;34574;-71
2023/09/23 11:06:58;;;;;;;5.32;2.10;;;;;;;;;;5575830;31;34730;-72
2023/09/23 11:10:01;;;;;;;3.70;2.03;;;;;;;24.98;100.00;100052.28;5575684;31;34086;-72
2023/09/23 11:13:05;;;;;;;6.97;2.25;;;;;;;26.12;89.84;100067.91;5588528;31;33737;-71
2023/09/23 11:16:09;;;;;;;6.22;2.22;;;;;;;25.37;95.38;100076.97;5589225;31;33727;-72
2023/09/23 11:19:12;;;;;;;5.95;2.25;;;;;;;23.92;100.00;100074.37;5589460;31;34531;-72
2023/09/23 11:22:23;;;;;;;4.32;2.35;;;;;;;23.14;100.00;100073.22;5589310;31;34453;-74
2023/09/23 11:25:26;;;;;;;7.22;2.45;;;;;;;23.85;100.00;100076.50;5589044;31;33822;-72
2023/09/23 11:28:31;;;;;;;5.78;2.30;;;;;;;24.30;100.00;100088.69;5589020;31;33844;-72
2023/09/23 11:31:34;;;;;;;5.93;2.15;;;;;;;24.89;100.00;100095.41;5588959;31;33699;-72
2023/09/23 11:34:37;;;;;;;5.87;2.53;;;;;;;25.42;100.00;100107.66;5589199;31;34423;-73
2023/09/23 11:37:40;;;;;;;6.60;2.20;;;;;;;25.17;100.00;100098.72;5588904;31;33767;-74
2023/09/23 11:40:45;;;;;;;4.28;2.08;;;;;;;25.53;95.88;100098.44;5588917;31;33838;-73
2023/09/23 11:43:50;;;;;;;4.70;2.12;;;;;;;25.53;100.00;100101.16;5588974;31;33787;-74
2023/09/23 11:46:53;;;;;;;5.43;2.15;;;;;;;25.96;88.73;100088.06;5588815;31;33926;-74
2023/09/23 11:49:56;;;;;;;8.85;2.03;;;;;;;26.87;81.55;100081.47;5588770;31;33747;-74
2023/09/23 11:52:59;;;;;;;7.95;2.15;;;;;;;26.19;84.55;100082.00;5588628;31;34454;-74
2023/09/23 11:56:02;;;;;;;4.43;1.90;;;;;;;25.19;92.91;100086.47;5588615;31;33682;-72
2023/09/23 11:59:05;;;;;;;4.57;2.10;;;;;;;24.75;97.98;100085.28;5588866;31;35295;-71
2023/09/23 12:02:11;;;;;;;4.55;2.10;;;;;;;23.61;100.00;100099.66;5588395;31;33699;-74
2023/09/23 12:05:16;;;;;;;6.32;2.40;;;;;;;22.63;100.00;100109.75;5588547;31;33776;-72
2023/09/23 12:08:19;;;;;;;5.07;2.30;;;;;;;21.76;100.00;100115.06;5588601;31;34031;-72
2023/09/23 12:11:23;;;;;;;4.32;2.33;;;;;;;21.44;100.00;100117.53;5588311;31;33767;-74
2023/09/23 12:14:26;;;;;;;6.18;2.65;;;;;;;20.83;100.00;100111.03;5588327;31;33718;-73
2023/09/23 12:17:29;;;;;;;4.47;2.45;;;;;;;20.97;100.00;100108.84;5588353;31;34395;-73
2023/09/23 12:20:32;;;;;;;4.57;2.30;;;;;;;21.30;100.00;100115.41;5588206;31;33819;-72
2023/09/23 12:23:37;;;;;;;4.20;2.90;;;;;;;21.21;100.00;100115.78;5589582;31;33704;-72
2023/09/23 12:26:41;;;;;;;5.55;2.90;;;;;;;21.24;100.00;100139.59;5590604;31;34780;-73
2023/09/23 12:29:44;;;;;;;3.90;2.50;;;;;;;21.46;100.00;100155.06;5590707;31;34406;-70
2023/09/23 12:32:47;;;;;;;5.25;2.67;;;;;;;20.86;100.00;100152.06;5577208;31;33623;-72
2023/09/23 12:35:50;;;;;;;4.70;2.80;;;;;;;21.06;100.00;100150.53;5590821;31;34729;-72
2023/09/23 12:38:55;;;;;;;4.35;2.80;;;;;;;20.88;100.00;100169.63;5590485;31;33894;-71
2023/09/23 12:41:58;;;;;;;3.37;2.80;;;;;;;20.82;100.00;100171.41;5590459;31;33686;-72
2023/09/23 12:45:01;;;;;;;5.35;2.75;;;;;;;20.01;100.00;100158.03;5590219;31;34468;-73
2023/09/23 12:48:09;;;;;;;5.47;3.10;;;;;;;19.78;100.00;100153.47;5590518;31;34745;-72
2023/09/23 12:51:13;;;;;;;4.50;2.90;;;;;;;19.52;100.00;100164.66;5590341;31;34511;-72
2023/09/23 12:54:16;;;;;;;4.00;2.92;;;;;;;19.65;100.00;100156.41;5590335;31;34069;-73
2023/09/23 12:57:19;;;;;;;7.95;3.30;;;;;;;19.30;100.00;100148.22;5590258;31;33809;-72
2023/09/23 13:00:22;;;;;;;3.33;3.00;;;;;;;18.92;100.00;100159.31;5590362;31;33802;-74
2023/09/23 13:03:27;;;;;;;5.05;3.10;;;;;;;18.65;100.00;100169.56;5590486;31;33770;-74
2023/09/23 13:06:31;;;;;;;3.97;3.10;;;;;;;18.74;100.00;100196.94;5590336;31;33736;-72
2023/09/23 13:09:33;;;;;;;4.05;3.00;;;;;;;18.61;100.00;100192.56;5590136;31;33784;-72
2023/09/23 13:12:37;;;;;;;4.97;2.90;;;;;;;18.61;100.00;100183.69;5590168;31;34042;-73
2023/09/23 13:15:40;;;;;;;3.40;2.80;;;;;;;18.80;100.00;100173.72;5590048;31;33894;-73
2023/09/23 13:18:43;;;;;;;2.17;2.00;;;;;;;18.68;100.00;100181.75;5590031;31;34621;-74
2023/09/23 13:21:47;;;;;;;2.78;1.90;;;;;;;18.67;100.00;100191.69;5590183;31;33824;-72
2023/09/23 13:24:51;;;;;;;1.52;1.42;;;;;;;18.58;100.00;100189.53;5590223;31;33873;-73
2023/09/23 13:27:55;;;;;;;2.08;1.33;;;;;;;18.66;100.00;100183.84;5590140;31;33697;-74
2023/09/23 13:30:59;;;;;;;2.45;1.00;;;;;;;18.51;100.00;100178.81;5576400;31;34324;-72
2023/09/23 13:34:02;;;;;;;2.12;1.30;;;;;;;18.50;100.00;100182.53;5589602;31;33651;-71
2023/09/23 13:37:08;;;;;;;3.10;1.40;;;;;;;18.52;100.00;100169.72;5576518;31;33865;-73
2023/09/23 13:40:11;;;;;;;2.90;1.45;;;;;;;18.39;100.00;100174.41;5590047;31;32342;-73
2023/09/23 13:43:14;;;;;;;4.10;1.52;;;;;;;18.99;100.00;100183.41;5589925;31;33848;-70
2023/09/23 13:46:17;;;;;;;2.17;1.73;;;;;;;18.62;100.00;100163.84;5589781;31;34001;-72
2023/09/23 13:49:21;;;;;;;1.90;1.80;;;;;;;18.34;100.00;100168.91;5576734;31;33835;-72
2023/09/23 13:52:24;;;;;;;2.90;2.00;;;;;;;17.96;100.00;100182.50;5590052;31;34434;-72
2023/09/23 13:55:27;;;;;;;3.67;2.25;;;;;;;17.97;100.00;100210.94;5576276;31;33675;-72
2023/09/23 13:58:30;;;;;;;2.70;2.17;;;;;;;17.68;100.00;100207.88;5576204;31;33733;-73
2023/09/23 14:01:33;;;;;;;3.65;2.00;;;;;;;17.58;100.00;100191.41;5589882;31;33882;-72
2023/09/23 14:04:36;;;;;;;2.83;2.20;;;;;;;17.71;100.00;100196.75;5589919;31;33733;-73